Time;durP1;ratioP1;P1;durP2;ratioP2;P2;SDS_P1;SDS_P2;PMS_P1;PMS_P2;Temp;Humidity;BMP_temperature;BMP_pressure;BME280_temperature;BME280_humidity;BME280_pressure;Samples;Min_cycle;Max_cycle;Signal;HPM_P1;HPM_P2
2023/08/08 00:00:18;;;;;;;2.33;1.52;;;18.00;99.90;;;;;;5054284;28;20040;-49
2023/08/08 00:02:44;;;;;;;3.17;1.30;;;18.00;99.90;;;;;;5070922;28;20043;-49
2023/08/08 00:05:10;;;;;;;2.63;1.90;;;18.00;99.90;;;;;;5073014;28;20059;-49
2023/08/08 00:07:35;;;;;;;2.88;1.40;;;18.00;99.90;;;;;;5070839;28;20072;-49
2023/08/08 00:10:01;;;;;;;2.83;1.30;;;18.10;99.90;;;;;;5072691;28;20028;-49
2023/08/08 00:12:27;;;;;;;2.85;1.42;;;18.00;99.90;;;;;;5072908;28;20030;-49
2023/08/08 00:14:53;;;;;;;1.85;1.40;;;17.90;99.90;;;;;;5072896;28;20025;-49
2023/08/08 00:17:18;;;;;;;4.28;1.60;;;17.90;99.90;;;;;;5072729;28;20056;-49
2023/08/08 00:19:44;;;;;;;1.80;1.15;;;18.00;99.90;;;;;;5072678;28;20529;-49
2023/08/08 00:22:10;;;;;;;3.88;1.30;;;18.00;99.90;;;;;;5073129;28;20039;-49
2023/08/08 00:24:35;;;;;;;1.20;1.10;;;18.00;99.90;;;;;;5072683;28;20094;-49
2023/08/08 00:27:01;;;;;;;1.50;1.20;;;18.00;99.90;;;;;;5072269;28;20056;-49
2023/08/08 00:29:27;;;;;;;3.55;1.50;;;18.00;99.90;;;;;;5072968;28;20059;-49
2023/08/08 00:31:53;;;;;;;1.25;1.15;;;18.00;99.90;;;;;;5053635;28;20064;-50
2023/08/08 00:34:18;;;;;;;2.28;1.10;;;18.10;99.90;;;;;;5072453;28;20032;-49
2023/08/08 00:36:44;;;;;;;3.85;1.20;;;18.00;99.90;;;;;;5072659;28;20025;-49
2023/08/08 00:39:10;;;;;;;3.78;1.15;;;18.10;99.90;;;;;;5036653;28;20044;-49
2023/08/08 00:41:36;;;;;;;4.10;1.20;;;18.00;99.90;;;;;;5072319;28;20202;-49
2023/08/08 00:44:01;;;;;;;3.35;1.10;;;18.10;99.90;;;;;;5069910;28;20133;-49
2023/08/08 00:46:27;;;;;;;2.75;1.05;;;18.10;99.90;;;;;;5072578;28;20025;-50
2023/08/08 00:48:53;;;;;;;2.67;1.23;;;18.00;99.90;;;;;;5053361;28;20043;-50
2023/08/08 00:51:20;;;;;;;3.85;1.23;;;18.10;99.90;;;;;;5072127;28;20063;-49
2023/08/08 00:53:46;;;;;;;1.73;1.15;;;18.00;99.90;;;;;;5070074;28;20031;-49
2023/08/08 00:56:13;;;;;;;2.13;1.27;;;18.00;99.90;;;;;;5071921;28;20020;-49
2023/08/08 00:58:40;;;;;;;5.47;1.30;;;18.10;99.90;;;;;;5053327;28;20051;-49
2023/08/08 01:01:06;;;;;;;1.50;1.40;;;18.10;99.90;;;;;;5072242;28;20111;-49
2023/08/08 01:03:32;;;;;;;2.22;1.20;;;18.10;99.90;;;;;;5072158;28;20485;-49
2023/08/08 01:06:35;;;;;;;1.10;1.00;;;18.10;99.90;;;;;;5071730;28;20070;-49
2023/08/08 01:09:13;;;;;;;2.00;1.05;;;18.10;99.90;;;;;;5051979;28;20032;-49
2023/08/08 01:11:40;;;;;;;1.63;1.00;;;18.20;99.90;;;;;;5072408;28;20028;-49
2023/08/08 01:14:07;;;;;;;2.95;1.00;;;18.20;99.90;;;;;;5071773;28;20032;-49
2023/08/08 01:16:33;;;;;;;4.90;0.80;;;18.20;99.90;;;;;;5072029;28;20111;-49
2023/08/08 01:19:00;;;;;;;3.05;1.00;;;18.20;99.90;;;;;;5071711;28;20076;-49
2023/08/08 01:21:29;;;;;;;3.10;1.00;;;18.20;99.90;;;;;;5071947;28;20044;-49
2023/08/08 01:24:15;;;;;;;4.65;1.10;;;18.20;99.90;;;;;;5084152;28;20054;-49
2023/08/08 01:26:41;;;;;;;1.38;0.90;;;18.20;99.90;;;;;;5071731;28;20082;-49
2023/08/08 01:29:06;;;;;;;4.53;1.30;;;18.20;99.90;;;;;;5071727;28;20447;-49
2023/08/08 01:31:32;;;;;;;1.60;0.93;;;18.20;99.90;;;;;;5071795;28;20048;-49
2023/08/08 01:33:58;;;;;;;1.17;1.08;;;18.10;99.90;;;;;;5071680;28;20021;-49
2023/08/08 01:36:45;;;;;;;1.20;0.82;;;18.10;99.90;;;;;;5071980;28;20115;-49
2023/08/08 01:39:15;;;;;;;1.13;1.00;;;18.20;99.90;;;;;;5071608;28;20036;-50
2023/08/08 01:41:44;;;;;;;2.47;0.77;;;18.20;99.90;;;;;;5072182;28;20108;-49
2023/08/08 01:44:11;;;;;;;4.47;1.73;;;18.10;99.90;;;;;;5071549;28;20028;-49
2023/08/08 01:46:38;;;;;;;2.75;0.65;;;18.10;99.90;;;;;;5071943;28;20028;-49
2023/08/08 01:49:04;;;;;;;2.15;0.80;;;18.10;99.90;;;;;;5071763;28;20058;-49
2023/08/08 01:51:29;;;;;;;2.50;1.00;;;18.00;99.90;;;;;;5071504;28;20551;-49
2023/08/08 01:53:56;;;;;;;1.17;0.70;;;18.10;99.90;;;;;;5072030;28;20060;-49
2023/08/08 01:56:22;;;;;;;2.42;0.82;;;18.00;99.90;;;;;;5069457;28;20063;-49
2023/08/08 01:58:47;;;;;;;5.28;1.13;;;18.00;99.90;;;;;;5069285;28;20120;-49
2023/08/08 02:01:13;;;;;;;1.60;0.70;;;18.00;99.90;;;;;;5070485;28;20128;-49
2023/08/08 02:03:39;;;;;;;0.82;0.60;;;18.00;99.90;;;;;;5052783;28;20032;-49
2023/08/08 02:06:04;;;;;;;1.00;0.73;;;18.10;99.90;;;;;;5071512;28;20055;-49
2023/08/08 02:08:30;;;;;;;1.50;0.80;;;18.20;99.90;;;;;;5071503;28;20028;-49
2023/08/08 02:10:56;;;;;;;1.73;0.50;;;18.10;99.90;;;;;;5069091;28;20047;-49
2023/08/08 02:13:22;;;;;;;1.73;0.73;;;18.00;99.90;;;;;;5071432;28;20024;-49
2023/08/08 02:15:47;;;;;;;1.50;0.80;;;18.00;99.90;;;;;;5071726;28;20028;-49
2023/08/08 02:18:13;;;;;;;1.08;0.85;;;18.00;99.90;;;;;;5075163;28;20032;-49
2023/08/08 02:20:39;;;;;;;1.52;0.60;;;18.10;99.90;;;;;;5075017;28;20032;-49
2023/08/08 02:23:05;;;;;;;1.27;0.82;;;18.10;99.90;;;;;;5073083;28;20036;-49
2023/08/08 02:25:30;;;;;;;0.93;0.68;;;18.10;99.90;;;;;;5075459;28;20029;-49
2023/08/08 02:27:57;;;;;;;2.10;0.80;;;18.20;99.90;;;;;;5074930;28;20515;-49
2023/08/08 02:30:22;;;;;;;5.40;0.75;;;18.20;99.90;;;;;;5074921;28;20039;-49
2023/08/08 02:32:48;;;;;;;2.10;1.00;;;18.20;99.90;;;;;;5075317;28;20016;-49
2023/08/08 02:35:14;;;;;;;2.88;0.70;;;18.20;99.90;;;;;;5074868;28;20028;-49
2023/08/08 02:37:40;;;;;;;1.58;0.77;;;18.20;99.90;;;;;;5074769;28;20096;-49
2023/08/08 02:40:07;;;;;;;3.20;0.82;;;18.30;99.90;;;;;;5074717;28;20119;-49
2023/08/08 02:42:33;;;;;;;3.33;1.00;;;18.30;99.90;;;;;;5074582;28;20033;-49
2023/08/08 02:44:59;;;;;;;1.48;0.80;;;18.30;99.90;;;;;;5074946;28;20035;-49
2023/08/08 02:47:25;;;;;;;0.65;0.65;;;18.30;99.90;;;;;;5074229;28;20024;-49
2023/08/08 02:49:50;;;;;;;2.05;0.70;;;18.30;99.90;;;;;;5074175;28;20457;-49
2023/08/08 02:52:16;;;;;;;2.03;0.75;;;18.20;99.90;;;;;;5073504;28;20032;-49
2023/08/08 02:54:42;;;;;;;3.53;0.82;;;18.20;99.90;;;;;;5074551;28;20380;-49
2023/08/08 02:57:10;;;;;;;0.95;0.75;;;18.20;99.90;;;;;;5073330;28;20056;-49
2023/08/08 02:59:36;;;;;;;1.35;0.68;;;18.30;99.90;;;;;;5074640;28;20041;-49
2023/08/08 03:02:03;;;;;;;0.85;0.70;;;18.30;99.90;;;;;;5074656;28;20029;-49
2023/08/08 03:04:29;;;;;;;2.50;0.98;;;18.30;99.90;;;;;;5074782;28;20032;-49
2023/08/08 03:06:55;;;;;;;1.77;0.90;;;18.30;99.90;;;;;;5074568;28;20029;-49
2023/08/08 03:09:21;;;;;;;3.17;1.35;;;18.20;99.90;;;;;;5074357;28;20468;-49
2023/08/08 03:11:47;;;;;;;0.88;0.77;;;18.20;99.90;;;;;;5074303;28;20032;-49
2023/08/08 03:14:13;;;;;;;2.05;1.00;;;18.20;99.90;;;;;;5074313;28;20121;-49
2023/08/08 03:16:39;;;;;;;1.75;0.98;;;18.10;99.90;;;;;;5074479;28;20054;-49
2023/08/08 03:19:04;;;;;;;1.40;0.88;;;18.20;99.90;;;;;;5074343;28;20025;-49
2023/08/08 03:21:30;;;;;;;1.27;0.95;;;18.20;99.90;;;;;;5074140;28;20035;-49
2023/08/08 03:23:57;;;;;;;2.15;0.93;;;18.20;99.90;;;;;;5074347;28;20020;-49
2023/08/08 03:26:23;;;;;;;2.00;0.85;;;18.20;99.90;;;;;;5074092;28;20119;-49
2023/08/08 03:28:50;;;;;;;3.72;1.05;;;18.10;99.90;;;;;;5088013;28;20048;-49
2023/08/08 03:31:17;;;;;;;3.28;1.00;;;18.10;99.90;;;;;;5071715;28;20063;-49
2023/08/08 03:33:43;;;;;;;3.63;0.95;;;18.20;99.90;;;;;;5073753;28;20035;-49
2023/08/08 03:36:09;;;;;;;3.75;1.10;;;18.30;99.90;;;;;;5073682;28;20037;-49
2023/08/08 03:38:37;;;;;;;1.27;0.80;;;18.10;99.90;;;;;;5073886;28;20036;-48
2023/08/08 03:41:03;;;;;;;2.13;1.00;;;18.10;99.90;;;;;;5073797;28;20460;-49
2023/08/08 03:43:29;;;;;;;2.28;1.10;;;18.00;99.90;;;;;;5073800;28;20029;-49
2023/08/08 03:45:55;;;;;;;2.78;1.00;;;18.00;99.90;;;;;;5073548;28;20181;-49
2023/08/08 03:48:21;;;;;;;1.60;0.95;;;18.00;99.90;;;;;;5073938;28;20032;-49
2023/08/08 03:50:46;;;;;;;1.88;1.10;;;18.00;99.90;;;;;;5073439;28;20115;-49
2023/08/08 03:53:13;;;;;;;2.88;1.58;;;18.00;99.90;;;;;;5073774;28;20031;-49
2023/08/08 03:55:38;;;;;;;6.13;1.73;;;18.00;99.90;;;;;;5073880;28;20025;-49
2023/08/08 03:58:05;;;;;;;1.85;1.15;;;18.00;99.90;;;;;;5071042;28;20135;-49
2023/08/08 04:00:31;;;;;;;1.00;0.80;;;18.10;99.90;;;;;;5073513;28;20032;-49
2023/08/08 04:02:57;;;;;;;1.00;0.90;;;18.20;99.90;;;;;;5054456;28;20036;-49
2023/08/08 04:05:23;;;;;;;2.83;1.10;;;18.10;99.90;;;;;;5073607;28;20395;-49
2023/08/08 04:07:50;;;;;;;4.22;1.23;;;18.20;99.90;;;;;;5087904;28;20032;-49
2023/08/08 04:10:15;;;;;;;1.25;0.90;;;18.20;99.90;;;;;;5073089;28;20048;-49
2023/08/08 04:12:41;;;;;;;1.52;1.00;;;18.30;99.90;;;;;;5073098;28;20067;-49
2023/08/08 04:15:07;;;;;;;3.67;1.10;;;18.30;99.90;;;;;;5070700;28;20040;-49
2023/08/08 04:17:33;;;;;;;5.25;0.88;;;18.40;99.90;;;;;;5070846;28;20082;-49
2023/08/08 04:19:59;;;;;;;1.98;1.00;;;18.40;99.90;;;;;;5072970;28;20029;-49
2023/08/08 04:22:24;;;;;;;3.17;2.08;;;18.40;99.90;;;;;;5087374;28;20046;-49
2023/08/08 04:24:50;;;;;;;6.07;1.45;;;18.40;99.90;;;;;;5072724;28;20028;-48
2023/08/08 04:27:16;;;;;;;2.42;1.42;;;18.40;99.90;;;;;;5048642;28;20470;-49
2023/08/08 04:29:42;;;;;;;1.05;0.95;;;18.50;99.90;;;;;;5052766;28;20041;-49
2023/08/08 04:32:08;;;;;;;1.50;1.00;;;18.60;99.90;;;;;;5052265;28;20112;-49
2023/08/08 04:34:33;;;;;;;1.40;1.00;;;18.60;99.90;;;;;;5052684;28;20021;-49
2023/08/08 04:36:59;;;;;;;14.07;1.35;;;18.70;99.90;;;;;;5052831;28;20040;-49
2023/08/08 04:39:25;;;;;;;2.28;1.08;;;18.70;99.90;;;;;;5032798;28;20087;-49
2023/08/08 04:41:51;;;;;;;3.90;1.70;;;18.70;99.90;;;;;;5052667;28;20505;-49
2023/08/08 04:44:16;;;;;;;3.63;1.30;;;18.70;99.90;;;;;;5052678;28;20139;-49
2023/08/08 04:46:42;;;;;;;2.03;0.88;;;18.80;99.90;;;;;;5067032;28;20035;-49
2023/08/08 04:49:08;;;;;;;1.55;1.15;;;18.80;99.90;;;;;;5052353;28;20098;-49
2023/08/08 04:51:33;;;;;;;1.20;1.10;;;18.80;99.90;;;;;;5066896;28;20098;-49
2023/08/08 04:53:59;;;;;;;1.88;1.17;;;18.80;99.90;;;;;;5052566;28;20036;-49
2023/08/08 04:56:25;;;;;;;1.70;0.90;;;18.90;99.90;;;;;;5052536;28;20021;-49
2023/08/08 04:58:50;;;;;;;1.40;0.98;;;19.00;99.90;;;;;;5052314;28;20463;-49
2023/08/08 05:01:17;;;;;;;3.53;1.38;;;19.00;99.90;;;;;;5052447;28;20029;-49
2023/08/08 05:03:43;;;;;;;2.97;1.40;;;19.10;99.90;;;;;;5066651;28;20087;-49
2023/08/08 05:06:09;;;;;;;3.53;1.10;;;19.10;99.90;;;;;;5052409;28;20384;-49
2023/08/08 05:08:34;;;;;;;2.20;1.20;;;19.10;99.90;;;;;;5052194;28;20565;-49
2023/08/08 05:11:00;;;;;;;5.63;1.30;;;19.10;99.90;;;;;;5052347;28;20021;-49
2023/08/08 05:13:26;;;;;;;3.00;1.30;;;19.20;99.90;;;;;;5065950;28;20040;-48
2023/08/08 05:15:52;;;;;;;1.60;1.10;;;19.20;99.90;;;;;;5062455;28;20515;-48
2023/08/08 05:18:17;;;;;;;3.00;1.27;;;19.30;99.90;;;;;;5062482;28;20024;-49
2023/08/08 05:20:43;;;;;;;1.92;1.00;;;19.30;99.90;;;;;;5069279;28;20028;-49
2023/08/08 05:23:09;;;;;;;2.03;1.30;;;19.30;99.90;;;;;;5076266;28;20476;-49
2023/08/08 05:25:35;;;;;;;1.73;1.15;;;19.50;99.90;;;;;;5062054;28;20109;-49
2023/08/08 05:28:00;;;;;;;2.58;1.15;;;19.50;99.90;;;;;;5060136;28;20048;-49
2023/08/08 05:30:26;;;;;;;4.20;1.45;;;19.60;99.90;;;;;;5061969;28;20108;-49
2023/08/08 05:32:52;;;;;;;2.45;1.30;;;19.70;99.90;;;;;;5065686;28;20032;-49
2023/08/08 05:35:18;;;;;;;0.82;0.82;;;19.80;99.90;;;;;;5074857;28;20040;-49
2023/08/08 05:37:44;;;;;;;1.27;1.17;;;19.80;99.90;;;;;;5058217;28;20057;-48
2023/08/08 05:40:10;;;;;;;2.25;1.10;;;19.90;99.90;;;;;;5061521;28;20029;-49
2023/08/08 05:42:37;;;;;;;1.98;1.10;;;20.00;99.90;;;;;;5074860;28;20025;-48
2023/08/08 05:45:04;;;;;;;1.52;0.90;;;20.00;99.90;;;;;;5061581;28;20543;-49
2023/08/08 05:47:29;;;;;;;0.93;0.80;;;20.10;99.90;;;;;;5076213;28;20126;-49
2023/08/08 05:49:55;;;;;;;3.22;1.55;;;20.20;99.90;;;;;;5060099;28;20071;-51
2023/08/08 05:52:21;;;;;;;1.63;1.15;;;20.30;99.90;;;;;;5071908;28;20033;-51
2023/08/08 05:54:47;;;;;;;4.82;1.23;;;20.40;99.90;;;;;;5065582;28;20051;-50
2023/08/08 05:57:13;;;;;;;4.63;1.23;;;20.50;99.90;;;;;;5064109;28;20025;-49
2023/08/08 05:59:39;;;;;;;3.30;1.10;;;20.50;99.90;;;;;;5080714;28;20048;-50
2023/08/08 06:02:05;;;;;;;2.38;1.30;;;;;;;;;;5062770;28;20035;-51
2023/08/08 06:04:30;;;;;;;2.00;1.35;;;21.00;99.90;;;;;;5072663;28;20399;-50
2023/08/08 06:06:57;;;;;;;2.92;1.00;;;21.20;99.90;;;;;;5068259;28;20112;-51
2023/08/08 06:09:25;;;;;;;3.05;2.00;;;21.30;99.90;;;;;;5050587;28;20024;-49
2023/08/08 06:11:50;;;;;;;2.55;1.20;;;21.40;99.90;;;;;;5079412;28;20036;-49
2023/08/08 06:14:17;;;;;;;3.70;1.83;;;21.50;99.90;;;;;;5064305;28;20025;-49
2023/08/08 06:16:43;;;;;;;1.70;1.00;;;21.60;99.90;;;;;;5062406;28;20036;-49
2023/08/08 06:19:10;;;;;;;1.60;0.95;;;21.70;99.90;;;;;;5055271;28;20662;-49
2023/08/08 06:21:36;;;;;;;0.88;0.80;;;21.70;99.90;;;;;;5069476;28;20037;-50
2023/08/08 06:24:01;;;;;;;1.63;0.70;;;21.60;99.90;;;;;;5054977;28;20480;-49
2023/08/08 06:26:27;;;;;;;1.42;0.73;;;21.60;99.90;;;;;;5055312;28;20082;-49
2023/08/08 06:28:53;;;;;;;1.33;0.90;;;21.50;99.90;;;;;;5052984;28;20048;-49
2023/08/08 06:31:19;;;;;;;1.73;0.85;;;21.50;99.90;;;;;;5071972;28;20051;-49
2023/08/08 06:33:45;;;;;;;2.08;0.98;;;21.40;99.90;;;;;;5086829;28;20040;-49
2023/08/08 06:36:11;;;;;;;2.03;0.90;;;21.40;99.90;;;;;;5069367;28;20033;-49
2023/08/08 06:38:36;;;;;;;1.10;0.70;;;21.40;99.90;;;;;;5074876;28;20036;-49
2023/08/08 06:41:03;;;;;;;3.47;0.98;;;21.30;99.90;;;;;;5075293;28;20029;-48
2023/08/08 06:43:30;;;;;;;1.73;1.05;;;21.40;99.90;;;;;;5069465;28;20102;-49
2023/08/08 06:45:56;;;;;;;1.30;1.02;;;21.30;99.90;;;;;;5054799;28;20064;-49
2023/08/08 06:48:22;;;;;;;1.85;0.88;;;21.10;99.90;;;;;;5035760;28;20110;-49
2023/08/08 06:50:48;;;;;;;2.85;1.08;;;21.10;99.90;;;;;;5054968;28;20378;-49
2023/08/08 06:53:14;;;;;;;2.60;0.90;;;21.20;99.90;;;;;;5054747;28;20060;-49
2023/08/08 06:55:39;;;;;;;1.30;1.02;;;21.20;99.90;;;;;;5054460;28;20040;-49
2023/08/08 06:58:05;;;;;;;2.83;1.08;;;21.30;99.90;;;;;;5054273;28;20036;-49
2023/08/08 07:00:31;;;;;;;1.20;0.93;;;21.30;99.90;;;;;;5054827;28;20120;-49
2023/08/08 07:02:57;;;;;;;2.00;1.10;;;21.40;99.90;;;;;;5072576;28;20123;-49
2023/08/08 07:05:23;;;;;;;1.65;1.00;;;21.40;99.90;;;;;;5039083;28;20072;-49
2023/08/08 07:07:50;;;;;;;1.98;1.17;;;21.50;99.90;;;;;;5054995;28;20117;-49
2023/08/08 07:10:16;;;;;;;3.90;1.70;;;21.50;99.90;;;;;;5054924;28;20387;-48
2023/08/08 07:12:42;;;;;;;2.00;1.05;;;21.60;99.90;;;;;;5071909;28;20040;-49
2023/08/08 07:15:09;;;;;;;2.53;1.00;;;21.80;99.90;;;;;;5092145;28;20070;-49
2023/08/08 07:17:35;;;;;;;2.03;1.42;;;21.70;99.90;;;;;;5037501;28;20081;-49
2023/08/08 07:20:02;;;;;;;4.97;1.05;;;21.70;99.90;;;;;;5058233;28;20044;-49
2023/08/08 07:22:27;;;;;;;3.38;1.52;;;21.90;99.90;;;;;;5091910;28;20114;-49
2023/08/08 07:24:53;;;;;;;1.33;1.10;;;;;;;;;;5091806;28;20115;-50
2023/08/08 07:27:19;;;;;;;1.95;1.27;;;22.00;99.90;;;;;;5091814;28;20076;-49
2023/08/08 07:29:45;;;;;;;3.88;1.30;;;22.00;99.90;;;;;;5089635;28;20080;-50
2023/08/08 07:32:11;;;;;;;2.75;1.50;;;22.00;99.90;;;;;;5074588;28;20033;-48
2023/08/08 07:34:37;;;;;;;2.00;1.45;;;;;;;;;;5054424;28;20131;-49
2023/08/08 07:37:03;;;;;;;1.98;1.50;;;22.70;99.90;;;;;;5064980;28;20035;-49
2023/08/08 07:39:29;;;;;;;3.75;1.13;;;22.90;99.90;;;;;;5073786;28;20032;-49
2023/08/08 07:41:55;;;;;;;3.03;1.20;;;23.20;99.90;;;;;;5073589;28;20032;-49
2023/08/08 07:44:20;;;;;;;3.08;1.02;;;23.00;99.90;;;;;;5088224;28;20036;-48
2023/08/08 07:46:46;;;;;;;3.85;2.03;;;22.90;99.90;;;;;;5073516;28;20048;-49
2023/08/08 07:49:13;;;;;;;2.10;1.40;;;22.40;99.90;;;;;;5088266;28;20040;-49
2023/08/08 07:51:38;;;;;;;2.97;1.45;;;22.40;99.90;;;;;;5071259;28;20043;-49
2023/08/08 07:54:10;;;;;;;2.78;1.30;;;22.30;99.90;;;;;;5087720;28;20033;-48
2023/08/08 07:56:36;;;;;;;3.30;1.52;;;22.30;99.90;;;;;;5073598;28;20107;-49
2023/08/08 07:59:02;;;;;;;4.68;2.20;;;22.20;99.90;;;;;;5054254;28;20119;-48
2023/08/08 08:01:28;;;;;;;2.28;1.30;;;22.10;99.90;;;;;;5073317;28;20028;-49
2023/08/08 08:03:54;;;;;;;2.30;1.55;;;22.10;99.90;;;;;;5073692;28;20027;-49
2023/08/08 08:06:20;;;;;;;2.33;1.10;;;22.00;99.90;;;;;;5073362;28;20024;-49
2023/08/08 08:08:45;;;;;;;5.13;3.70;;;21.90;99.90;;;;;;5072527;28;20107;-49
2023/08/08 08:11:13;;;;;;;3.03;1.30;;;21.80;99.90;;;;;;5073334;28;20027;-49
2023/08/08 08:13:39;;;;;;;1.67;0.95;;;21.90;99.90;;;;;;5071201;28;20041;-49
2023/08/08 08:16:05;;;;;;;2.60;1.35;;;22.20;99.90;;;;;;5072985;28;20036;-49
2023/08/08 08:18:32;;;;;;;4.30;1.38;;;22.30;99.90;;;;;;5061406;28;20541;-49
2023/08/08 08:20:57;;;;;;;5.75;2.75;;;22.60;99.90;;;;;;5061449;28;20087;-49
2023/08/08 08:23:23;;;;;;;3.20;1.77;;;22.90;99.90;;;;;;5062662;28;20028;-50
2023/08/08 08:25:50;;;;;;;2.83;1.10;;;;;;;;;;5047505;28;20396;-49
2023/08/08 08:28:16;;;;;;;1.65;1.15;;;;;;;;;;5079147;28;20051;-49
2023/08/08 08:30:43;;;;;;;1.67;1.05;;;;;;;;;;5060249;28;20025;-49
2023/08/08 08:33:09;;;;;;;2.30;0.95;;;;;;;;;;5062363;28;20029;-50
2023/08/08 08:35:36;;;;;;;1.92;1.00;;;;;;;;;;5071357;28;20043;-48
2023/08/08 08:38:02;;;;;;;1.27;0.80;;;;;;;;;;5072134;28;20025;-49
2023/08/08 08:40:48;;;;;;;2.65;0.90;;;;;;;;;;5035407;28;20457;-48
2023/08/08 08:43:16;;;;;;;2.58;1.10;;;;;;;;;;5049787;28;20044;-48
2023/08/08 08:45:44;;;;;;;1.70;1.13;;;;;;;;;;5049868;28;20048;-48
2023/08/08 08:48:11;;;;;;;2.42;1.30;;;;;;;;;;5048729;28;20055;-50
2023/08/08 08:50:38;;;;;;;2.13;1.48;;;;;;;;;;5049882;28;20048;-48
2023/08/08 08:53:05;;;;;;;2.15;1.45;;;;;;;;;;5049636;28;20108;-49
2023/08/08 08:55:31;;;;;;;1.00;0.85;;;;;;;;;;5049833;28;20106;-48
2023/08/08 08:58:19;;;;;;;2.08;1.00;;;25.20;99.90;;;;;;5009744;28;20048;-48
2023/08/08 09:00:47;;;;;;;2.08;1.10;;;24.80;99.90;;;;;;5010032;28;20042;-49
2023/08/08 09:03:13;;;;;;;3.22;0.90;;;24.50;99.90;;;;;;5009912;28;20053;-49
2023/08/08 09:05:41;;;;;;;1.58;1.25;;;24.30;99.90;;;;;;5009474;28;20033;-48
2023/08/08 09:08:08;;;;;;;8.52;1.50;;;;;;;;;;4975238;28;20037;-49
2023/08/08 09:10:35;;;;;;;2.83;1.48;;;;;;;;;;5008732;28;20044;-48
2023/08/08 09:13:01;;;;;;;2.63;1.70;;;25.30;99.90;;;;;;5049241;28;20037;-49
2023/08/08 09:15:34;;;;;;;1.08;0.98;;;25.50;99.90;;;;;;5049554;28;20025;-49
2023/08/08 09:18:01;;;;;;;2.03;1.38;;;;;;;;;;5049395;28;20029;-49
2023/08/08 09:20:30;;;;;;;1.65;1.05;;;;;;;;;;5049624;28;20499;-48
2023/08/08 09:22:56;;;;;;;1.23;1.00;;;;;;;;;;5031798;28;20028;-49
2023/08/08 09:25:23;;;;;;;2.13;1.20;;;26.20;99.90;;;;;;5048332;28;20036;-48
2023/08/08 09:27:51;;;;;;;2.13;1.17;;;25.30;99.90;;;;;;5048811;28;20053;-49
2023/08/08 09:30:17;;;;;;;3.15;1.10;;;25.00;99.90;;;;;;5046005;28;20128;-49
2023/08/08 09:32:45;;;;;;;3.63;1.30;;;24.90;99.90;;;;;;5047505;28;20244;-49
2023/08/08 09:35:11;;;;;;;1.65;1.10;;;24.70;99.90;;;;;;5051086;28;20033;-49
2023/08/08 09:37:37;;;;;;;2.42;1.10;;;25.00;99.90;;;;;;5068929;28;20036;-49
2023/08/08 09:40:07;;;;;;;2.42;1.00;;;25.60;99.90;;;;;;5058262;28;20037;-49
2023/08/08 09:42:34;;;;;;;2.90;1.52;;;;;;;;;;5057316;28;20041;-49
2023/08/08 09:45:00;;;;;;;1.70;1.08;;;26.70;99.90;;;;;;5064656;28;20641;-49
2023/08/08 09:47:34;;;;;;;0.98;0.88;;;26.60;99.90;;;;;;5060845;28;20021;-49
2023/08/08 09:50:04;;;;;;;2.55;1.08;;;;;;;;;;5059310;28;20465;-49
2023/08/08 09:52:30;;;;;;;1.55;1.05;;;;;;;;;;5059806;28;20539;-49
2023/08/08 09:54:57;;;;;;;1.27;0.90;;;27.90;99.90;;;;;;5058932;28;20029;-50
2023/08/08 09:57:24;;;;;;;2.05;1.30;;;27.80;99.90;;;;;;5061546;28;20024;-49
2023/08/08 09:59:52;;;;;;;3.78;1.27;;;27.20;99.90;;;;;;5081756;28;20404;-49
2023/08/08 10:02:18;;;;;;;3.40;0.88;;;26.50;99.90;;;;;;5061827;28;20368;-50
2023/08/08 10:05:04;;;;;;;2.20;1.13;;;27.10;99.90;;;;;;5080990;28;20123;-49
2023/08/08 10:07:30;;;;;;;2.00;1.10;;;;;;;;;;5075121;28;20048;-49
2023/08/08 10:09:58;;;;;;;1.75;1.10;;;;;;;;;;5077535;28;20526;-49
2023/08/08 10:12:26;;;;;;;1.67;1.17;;;28.10;99.90;;;;;;5066644;28;20090;-50
2023/08/08 10:14:52;;;;;;;0.93;0.75;;;27.70;99.90;;;;;;5044301;28;20111;-48
2023/08/08 10:17:18;;;;;;;2.20;1.00;;;27.70;99.90;;;;;;5077672;28;20120;-49
2023/08/08 10:20:11;;;;;;;1.50;1.02;;;27.60;99.90;;;;;;5077954;28;20036;-48
2023/08/08 10:22:38;;;;;;;3.70;1.30;;;;;;;;;;5072446;28;20043;-49
2023/08/08 10:25:05;;;;;;;1.45;0.80;;;;;;;;;;5078567;28;20506;-48
2023/08/08 10:27:35;;;;;;;1.00;0.88;;;;;;;;;;5061181;28;20045;-48
2023/08/08 10:30:10;;;;;;;2.17;1.20;;;28.40;99.90;;;;;;5083411;28;20647;-49
2023/08/08 10:32:40;;;;;;;3.47;1.10;;;27.80;99.90;;;;;;5066248;28;20111;-48
2023/08/08 10:35:07;;;;;;;1.05;0.82;;;;;;;;;;5083105;28;20032;-49
2023/08/08 10:37:33;;;;;;;1.40;1.08;;;26.80;99.90;;;;;;5032405;28;20033;-48
2023/08/08 10:40:00;;;;;;;3.10;1.40;;;;;;;;;;5058838;28;20063;-48
2023/08/08 10:42:30;;;;;;;1.23;0.95;;;26.10;99.90;;;;;;5062477;28;20503;-49
2023/08/08 10:44:58;;;;;;;2.67;1.30;;;25.90;99.90;;;;;;5082159;28;20044;-49
2023/08/08 10:47:24;;;;;;;1.42;1.08;;;;;;;;;;5067602;28;20095;-49
2023/08/08 10:50:17;;;;;;;2.28;1.15;;;;;;;;;;5068174;28;20025;-49
2023/08/08 10:52:52;;;;;;;2.80;1.00;;;;;;;;;;5064137;28;20119;-48
2023/08/08 10:55:26;;;;;;;1.83;1.33;;;28.70;99.90;;;;;;5067128;28;20090;-49
2023/08/08 10:57:57;;;;;;;2.63;1.17;;;28.50;99.90;;;;;;5058538;28;20035;-49
2023/08/08 11:00:26;;;;;;;4.32;1.55;;;;;;;;;;5064859;28;20036;-50
2023/08/08 11:02:52;;;;;;;4.53;1.40;;;;;;;;;;5063566;28;20423;-49
2023/08/08 11:05:18;;;;;;;3.58;1.25;;;;;;;;;;5077610;28;20421;-50
2023/08/08 11:07:44;;;;;;;4.10;1.75;;;27.90;99.90;;;;;;5064185;28;20028;-49
2023/08/08 11:10:10;;;;;;;2.97;1.15;;;27.40;99.90;;;;;;5062598;28;20526;-48
2023/08/08 11:12:36;;;;;;;1.92;1.10;;;26.70;99.90;;;;;;5058346;28;20028;-49
2023/08/08 11:15:02;;;;;;;2.65;1.23;;;26.70;99.90;;;;;;5062956;28;20388;-50
2023/08/08 11:17:28;;;;;;;3.13;1.15;;;26.70;99.90;;;;;;5062076;28;20028;-50
2023/08/08 11:19:55;;;;;;;1.83;1.10;;;26.70;99.90;;;;;;5062497;28;20036;-49
2023/08/08 11:22:23;;;;;;;3.38;2.63;;;27.50;99.90;;;;;;5077037;28;20060;-50
2023/08/08 11:24:50;;;;;;;1.75;0.95;;;;;;;;;;5062889;28;20024;-50
2023/08/08 11:27:17;;;;;;;2.20;1.10;;;;;;;;;;5062498;28;20057;-50
2023/08/08 11:29:52;;;;;;;1.45;1.10;;;;;;;;;;5063770;28;20073;-49
2023/08/08 11:32:18;;;;;;;2.08;1.17;;;;;;;;;;5064127;28;20025;-50
2023/08/08 11:34:46;;;;;;;2.92;1.25;;;;;;;;;;5064238;28;20451;-49
2023/08/08 11:37:15;;;;;;;2.22;1.20;;;28.40;99.90;;;;;;5062647;28;20139;-48
2023/08/08 11:39:41;;;;;;;1.70;1.10;;;28.00;99.90;;;;;;5062556;28;20361;-50
2023/08/08 11:42:07;;;;;;;3.22;1.30;;;27.70;99.90;;;;;;5063055;28;20442;-49
2023/08/08 11:44:33;;;;;;;4.45;1.00;;;;;;;;;;5063914;28;20027;-48
2023/08/08 11:47:02;;;;;;;2.92;1.45;;;27.20;99.90;;;;;;5061897;28;20024;-49
2023/08/08 11:49:28;;;;;;;2.45;1.30;;;;;;;;;;5062601;28;20059;-49
2023/08/08 11:51:55;;;;;;;2.03;1.17;;;;;;;;;;5069374;28;20024;-49
2023/08/08 11:54:21;;;;;;;3.10;1.35;;;;;;;;;;5073337;28;20033;-48
2023/08/08 11:56:47;;;;;;;1.52;1.10;;;29.10;99.90;;;;;;5073041;28;20379;-49
2023/08/08 11:59:13;;;;;;;3.40;1.60;;;29.80;99.90;;;;;;5062083;28;20028;-50
2023/08/08 12:01:41;;;;;;;1.77;1.00;;;29.50;99.90;;;;;;5062482;28;20071;-48
2023/08/08 12:04:08;;;;;;;1.98;1.20;;;;;;;;;;5053971;28;20064;-49
2023/08/08 12:06:40;;;;;;;1.38;1.08;;;28.40;99.90;;;;;;5053266;28;20040;-49
2023/08/08 12:09:06;;;;;;;1.35;0.98;;;;;;;;;;5053005;28;20072;-48
2023/08/08 12:11:37;;;;;;;4.43;1.33;;;27.60;99.90;;;;;;5053021;28;20094;-51
2023/08/08 12:14:02;;;;;;;1.60;1.02;;;27.80;99.90;;;;;;5050759;28;20543;-47
2023/08/08 12:16:32;;;;;;;2.78;1.00;;;27.80;99.90;;;;;;5053003;28;20155;-46
2023/08/08 12:19:00;;;;;;;2.05;1.30;;;27.80;99.90;;;;;;5055908;28;20059;-49
2023/08/08 12:21:26;;;;;;;3.17;1.50;;;28.40;99.90;;;;;;5085340;28;20040;-50
2023/08/08 12:23:52;;;;;;;1.92;1.00;;;;;;;;;;5072728;28;20100;-47
2023/08/08 12:26:18;;;;;;;2.53;1.10;;;;;;;;;;5072789;28;20376;-50
2023/08/08 12:28:44;;;;;;;1.77;1.23;;;28.50;99.90;;;;;;5087348;28;20045;-49
2023/08/08 12:31:10;;;;;;;3.55;1.67;;;28.30;99.90;;;;;;5072512;28;20025;-49
2023/08/08 12:33:36;;;;;;;3.92;1.40;;;;;;;;;;5072570;28;20035;-48
2023/08/08 12:36:02;;;;;;;2.05;1.25;;;;;;;;;;5062062;28;20496;-48
2023/08/08 12:38:28;;;;;;;3.30;1.27;;;;;;;;;;5066891;28;20037;-47
2023/08/08 12:40:54;;;;;;;2.65;1.30;;;;;;;;;;5066647;28;20572;-48
2023/08/08 12:43:20;;;;;;;2.30;1.50;;;29.50;99.90;;;;;;5052862;28;20021;-48
2023/08/08 12:45:47;;;;;;;2.20;1.50;;;;;;;;;;5066892;28;20370;-47
2023/08/08 12:48:13;;;;;;;1.75;1.20;;;;;;;;;;5052489;28;20028;-49
2023/08/08 12:50:40;;;;;;;4.25;1.20;;;28.50;99.90;;;;;;5060126;28;20032;-48
2023/08/08 12:53:07;;;;;;;3.15;1.65;;;28.50;99.90;;;;;;5072134;28;20082;-48
2023/08/08 12:55:33;;;;;;;4.57;1.33;;;;;;;;;;5069573;28;20127;-49
2023/08/08 12:57:59;;;;;;;2.20;1.08;;;;;;;;;;5072221;28;20028;-49
2023/08/08 13:00:25;;;;;;;1.58;1.00;;;;;;;;;;5086111;28;20048;-50
2023/08/08 13:02:52;;;;;;;2.78;1.30;;;;;;;;;;5072053;28;20028;-49
2023/08/08 13:05:18;;;;;;;1.98;1.00;;;;;;;;;;5068898;28;20034;-49